Time;durP1;ratioP1;P1;durP2;ratioP2;P2;SDS_P1;SDS_P2;PMS_P1;PMS_P2;Temp;Humidity;BMP_temperature;BMP_pressure;BME280_temperature;BME280_humidity;BME280_pressure;Samples;Min_cycle;Max_cycle;Signal;HPM_P1;HPM_P2
2022/03/16 00:02:20;;;;;;;;;;;9.30;99.90;;;;;;5094525;28;19999;-78
2022/03/16 00:04:47;;;;;;;;;;;9.20;99.90;;;;;;5093957;28;20395;-78
2022/03/16 00:07:13;;;;;;;;;;;9.20;99.90;;;;;;5094748;28;19919;-78
2022/03/16 00:09:39;;;;;;;;;;;9.20;99.90;;;;;;5093990;28;20275;-77
2022/03/16 00:12:04;;;;;;;;;;;9.20;99.90;;;;;;5093612;28;19912;-79
2022/03/16 00:14:30;;;;;;;;;;;9.20;99.90;;;;;;5094098;28;19912;-78
2022/03/16 00:16:55;;;;;;;;;;;9.20;99.90;;;;;;5094720;28;20006;-78
2022/03/16 00:19:21;;;;;;;;;;;9.10;99.90;;;;;;5094560;28;19915;-78
2022/03/16 00:21:47;;;;;;;;;;;9.10;99.90;;;;;;5094070;28;20434;-78
2022/03/16 00:24:12;;;;;;;;;;;9.00;99.90;;;;;;5099438;28;19912;-79
2022/03/16 00:26:38;;;;;;;;;;;8.90;99.90;;;;;;5094393;28;20276;-78
2022/03/16 00:29:03;;;;;;;;;;;8.90;99.90;;;;;;5094711;28;20002;-79
2022/03/16 00:31:29;;;;;;;;;;;8.80;99.90;;;;;;5093894;28;19989;-79
2022/03/16 00:33:54;;;;;;;;;;;8.80;99.90;;;;;;5094242;28;20349;-78
2022/03/16 00:36:21;;;;;;;;;;;8.70;99.90;;;;;;5094194;28;19912;-79
2022/03/16 00:38:47;;;;;;;;;;;8.70;99.90;;;;;;5093702;28;19969;-78
2022/03/16 00:41:13;;;;;;;;;;;8.70;99.90;;;;;;5094377;28;19908;-79
2022/03/16 00:43:38;;;;;;;;;;;8.70;99.90;;;;;;5094054;28;19961;-79
2022/03/16 00:46:04;;;;;;;;;;;8.70;99.90;;;;;;5094325;28;20003;-79
2022/03/16 00:48:29;;;;;;;;;;;8.70;99.90;;;;;;5093565;28;19914;-78
2022/03/16 00:50:55;;;;;;;;;;;8.60;99.90;;;;;;5094072;28;19908;-78
2022/03/16 00:53:21;;;;;;;;;;;8.60;99.90;;;;;;5094017;28;19919;-78
2022/03/16 00:55:46;;;;;;;;;;;8.60;99.90;;;;;;5092978;28;19939;-78
2022/03/16 00:58:12;;;;;;;;;;;8.60;99.90;;;;;;5094065;28;19916;-78
2022/03/16 01:00:37;;;;;;;;;;;8.60;99.90;;;;;;5093255;28;19940;-79
2022/03/16 01:03:03;;;;;;;;;;;8.50;99.90;;;;;;5093996;28;20365;-78
2022/03/16 01:05:28;;;;;;;;;;;8.50;99.90;;;;;;5091808;28;19934;-78
2022/03/16 01:07:54;;;;;;;;;;;8.40;99.90;;;;;;5093671;28;19908;-78
2022/03/16 01:10:19;;;;;;;;;;;8.40;99.90;;;;;;5094678;28;19908;-77
2022/03/16 01:12:45;;;;;;;;;;;8.30;99.90;;;;;;5093853;28;20616;-76
2022/03/16 01:15:10;;;;;;;;;;;8.30;99.90;;;;;;5094144;28;19915;-76
2022/03/16 01:17:36;;;;;;;;;;;8.30;99.90;;;;;;5092181;28;19912;-77
2022/03/16 01:20:02;;;;;;;;;;;8.20;99.90;;;;;;5093699;28;19916;-77
2022/03/16 01:22:28;;;;;;;;;;;8.20;99.90;;;;;;5093664;28;20408;-77
2022/03/16 01:24:53;;;;;;;;;;;8.20;99.90;;;;;;5093656;28;19961;-76
2022/03/16 01:27:19;;;;;;;;;;;8.20;99.90;;;;;;5092707;28;20356;-76
2022/03/16 01:29:44;;;;;;;;;;;8.10;99.90;;;;;;5093147;28;19915;-76
2022/03/16 01:32:10;;;;;;;;;;;8.10;99.90;;;;;;5093940;28;19909;-77
2022/03/16 01:34:35;;;;;;;;;;;8.20;99.90;;;;;;5093046;28;20455;-76
2022/03/16 01:37:03;;;;;;;;;;;8.10;99.90;;;;;;5093991;28;20053;-79
2022/03/16 01:39:28;;;;;;;;;;;8.10;99.90;;;;;;5093431;28;20384;-76
2022/03/16 01:41:54;;;;;;;;;;;8.10;99.90;;;;;;5093398;28;19908;-77
2022/03/16 01:44:39;;;;;;;;;;;8.10;99.90;;;;;;5093762;28;19908;-77
2022/03/16 01:47:05;;;;;;;;;;;8.10;99.90;;;;;;5093757;28;19915;-77
2022/03/16 01:49:30;;;;;;;;;;;8.00;99.90;;;;;;5093204;28;19912;-77
2022/03/16 01:51:56;;;;;;;;;;;8.00;99.90;;;;;;5093415;28;20281;-78
2022/03/16 01:54:22;;;;;;;;;;;8.10;99.90;;;;;;5093223;28;19919;-78
2022/03/16 01:56:47;;;;;;;;;;;8.00;99.90;;;;;;5092928;28;19912;-77
2022/03/16 01:59:13;;;;;;;;;;;8.00;99.90;;;;;;5093902;28;19908;-77
2022/03/16 02:01:39;;;;;;;;;;;8.00;99.90;;;;;;5092589;28;19908;-77
2022/03/16 02:04:04;;;;;;;;;;;7.90;99.90;;;;;;5093528;28;19915;-77
2022/03/16 02:06:30;;;;;;;;;;;8.00;99.90;;;;;;5093432;28;19999;-77
2022/03/16 02:08:56;;;;;;;;;;;8.00;99.90;;;;;;5092825;28;19916;-77
2022/03/16 02:11:21;;;;;;;;;;;7.90;99.90;;;;;;5093535;28;20345;-77
2022/03/16 02:13:47;;;;;;;;;;;7.90;99.90;;;;;;5092612;28;19957;-78
2022/03/16 02:16:13;;;;;;;;;;;7.90;99.90;;;;;;5093237;28;19919;-78
2022/03/16 02:18:38;;;;;;;;;;;7.90;99.90;;;;;;5092717;28;20330;-77
2022/03/16 02:21:05;;;;;;;;;;;7.80;99.90;;;;;;5093016;28;19916;-78
2022/03/16 02:23:31;;;;;;;;;;;7.80;99.90;;;;;;5092678;28;19908;-77
2022/03/16 02:25:56;;;;;;;;;;;7.80;99.90;;;;;;5092324;28;20284;-78
2022/03/16 02:28:22;;;;;;;;;;;7.90;99.90;;;;;;5093486;28;19912;-78
2022/03/16 02:30:49;;;;;;;;;;;7.80;99.90;;;;;;5091814;28;19908;-78
2022/03/16 02:33:15;;;;;;;;;;;7.80;99.90;;;;;;5092410;28;19952;-77
2022/03/16 02:35:40;;;;;;;;;;;7.80;99.90;;;;;;5092404;28;19963;-77
2022/03/16 02:38:06;;;;;;;;;;;7.70;99.90;;;;;;5092828;28;20441;-77
2022/03/16 02:40:32;;;;;;;;;;;7.70;99.90;;;;;;5092662;28;19916;-76
2022/03/16 02:42:58;;;;;;;;;;;7.70;99.90;;;;;;5092617;28;19913;-77
2022/03/16 02:45:23;;;;;;;;;;;7.60;99.90;;;;;;5092889;28;20246;-77
2022/03/16 02:47:49;;;;;;;;;;;7.60;99.90;;;;;;5097346;28;19946;-77
2022/03/16 02:50:18;;;;;;;;;;;7.60;99.90;;;;;;5097758;28;19961;-77
2022/03/16 02:52:44;;;;;;;;;;;7.60;99.90;;;;;;5109014;28;19939;-78
2022/03/16 02:55:10;;;;;;;;;;;7.70;99.90;;;;;;5098345;28;19916;-78
2022/03/16 02:57:36;;;;;;;;;;;7.70;99.90;;;;;;5092255;28;20376;-77
2022/03/16 03:00:05;;;;;;;;;;;7.60;99.90;;;;;;5092719;28;19908;-77
2022/03/16 03:02:31;;;;;;;;;;;7.60;99.90;;;;;;5092529;28;20030;-77
2022/03/16 03:04:56;;;;;;;;;;;7.60;99.90;;;;;;5092096;28;19955;-77
2022/03/16 03:07:22;;;;;;;;;;;7.60;99.90;;;;;;5092576;28;20296;-77
2022/03/16 03:09:47;;;;;;;;;;;7.50;99.90;;;;;;5092154;28;19958;-77
2022/03/16 03:12:13;;;;;;;;;;;7.50;99.90;;;;;;5092340;28;19912;-78
2022/03/16 03:14:39;;;;;;;;;;;7.50;99.90;;;;;;5091810;28;19912;-78
2022/03/16 03:17:04;;;;;;;;;;;7.50;99.90;;;;;;5092668;28;20364;-78
2022/03/16 03:19:30;;;;;;;;;;;7.50;99.90;;;;;;5092594;28;19908;-78
2022/03/16 03:21:56;;;;;;;;;;;7.50;99.90;;;;;;5091986;28;19904;-78
2022/03/16 03:24:21;;;;;;;;;;;7.50;99.90;;;;;;5092648;28;19978;-78
2022/03/16 03:26:47;;;;;;;;;;;7.50;99.90;;;;;;5091985;28;19953;-80
2022/03/16 03:29:14;;;;;;;;;;;7.40;99.90;;;;;;5092261;28;19908;-78
2022/03/16 03:31:40;;;;;;;;;;;7.50;99.90;;;;;;5091838;28;19915;-78
2022/03/16 03:34:05;;;;;;;;;;;7.50;99.90;;;;;;5092267;28;19908;-79
2022/03/16 03:36:31;;;;;;;;;;;7.50;99.90;;;;;;5092117;28;19923;-78
2022/03/16 03:38:56;;;;;;;;;;;7.50;99.90;;;;;;5091695;28;19964;-78
2022/03/16 03:41:22;;;;;;;;;;;7.40;99.90;;;;;;5093264;28;20380;-79
2022/03/16 03:43:47;;;;;;;;;;;7.50;99.90;;;;;;5108876;28;19958;-78
2022/03/16 03:46:13;;;;;;;;;;;7.40;99.90;;;;;;5100397;28;19914;-79
2022/03/16 03:48:39;;;;;;;;;;;7.40;99.90;;;;;;5095594;28;19915;-78
2022/03/16 03:51:04;;;;;;;;;;;7.40;99.90;;;;;;5095991;28;20250;-79
2022/03/16 03:53:30;;;;;;;;;;;7.40;99.90;;;;;;5095990;28;19930;-79
2022/03/16 03:55:56;;;;;;;;;;;7.40;99.90;;;;;;5094890;28;19956;-78
2022/03/16 03:58:21;;;;;;;;;;;7.30;99.90;;;;;;5096183;28;19912;-79
2022/03/16 04:00:49;;;;;;;;;;;7.30;99.90;;;;;;5095015;28;19908;-78
2022/03/16 04:03:15;;;;;;;;;;;7.30;99.90;;;;;;5096948;28;19920;-79
2022/03/16 04:05:40;;;;;;;;;;;7.30;99.90;;;;;;5095234;28;20050;-78
2022/03/16 04:08:06;;;;;;;;;;;7.30;99.90;;;;;;5095397;28;20007;-80
2022/03/16 04:10:31;;;;;;;;;;;7.30;99.90;;;;;;5095824;28;19908;-78
2022/03/16 04:12:57;;;;;;;;;;;7.20;99.90;;;;;;5095052;28;19908;-78
2022/03/16 04:15:22;;;;;;;;;;;7.20;99.90;;;;;;5095070;28;19913;-78
2022/03/16 04:17:48;;;;;;;;;;;7.30;99.90;;;;;;5093367;28;20276;-78
2022/03/16 04:20:14;;;;;;;;;;;7.20;99.90;;;;;;5095076;28;19909;-78
2022/03/16 04:22:39;;;;;;;;;;;7.20;99.90;;;;;;5095189;28;19912;-78
2022/03/16 04:25:05;;;;;;;;;;;7.20;99.90;;;;;;5094988;28;19922;-78
2022/03/16 04:27:31;;;;;;;;;;;7.20;99.90;;;;;;5097190;28;19909;-78
2022/03/16 04:29:57;;;;;;;;;;;7.20;99.90;;;;;;5108281;28;19915;-78
2022/03/16 04:32:22;;;;;;;;;;;7.10;99.90;;;;;;5096221;28;19912;-78
2022/03/16 04:34:48;;;;;;;;;;;7.20;99.90;;;;;;5093977;28;19955;-78
2022/03/16 04:37:13;;;;;;;;;;;7.10;99.90;;;;;;5094973;28;19916;-78
2022/03/16 04:39:39;;;;;;;;;;;7.10;99.90;;;;;;5093651;28;19958;-78
2022/03/16 04:42:05;;;;;;;;;;;7.10;99.90;;;;;;5094466;28;20281;-78
2022/03/16 04:44:31;;;;;;;;;;;7.00;99.90;;;;;;5093625;28;19915;-78
2022/03/16 04:46:56;;;;;;;;;;;7.00;99.90;;;;;;5094488;28;20323;-78
2022/03/16 04:49:22;;;;;;;;;;;7.00;99.90;;;;;;5095003;28;19945;-79
2022/03/16 04:51:47;;;;;;;;;;;7.10;99.90;;;;;;5094078;28;19908;-78
2022/03/16 04:54:14;;;;;;;;;;;7.10;99.90;;;;;;5093702;28;19908;-79
2022/03/16 04:56:40;;;;;;;;;;;7.10;99.90;;;;;;5092450;28;19923;-79
2022/03/16 04:59:06;;;;;;;;;;;7.00;99.90;;;;;;5093945;28;19908;-79
2022/03/16 05:01:32;;;;;;;;;;;7.00;99.90;;;;;;5093438;28;20177;-79
2022/03/16 05:03:58;;;;;;;;;;;7.00;99.90;;;;;;5094158;28;20007;-79
2022/03/16 05:06:23;;;;;;;;;;;7.00;99.90;;;;;;5094528;28;19912;-79
2022/03/16 05:08:50;;;;;;;;;;;7.00;99.90;;;;;;5093692;28;19908;-78
2022/03/16 05:11:16;;;;;;;;;;;6.90;99.90;;;;;;5094651;28;20319;-78
2022/03/16 05:13:41;;;;;;;;;;;6.90;99.90;;;;;;5102732;28;19912;-78
2022/03/16 05:16:07;;;;;;;;;;;7.00;99.90;;;;;;5096448;28;19942;-78
2022/03/16 05:18:33;;;;;;;;;;;7.00;99.90;;;;;;5094501;28;19948;-78
2022/03/16 05:20:59;;;;;;;;;;;7.00;99.90;;;;;;5093543;28;19977;-79
2022/03/16 05:23:25;;;;;;;;;;;7.00;99.90;;;;;;5093934;28;20381;-78
2022/03/16 05:25:50;;;;;;;;;;;6.90;99.90;;;;;;5093573;28;19957;-78
2022/03/16 05:28:19;;;;;;;;;;;6.90;99.90;;;;;;5094208;28;19908;-79
2022/03/16 05:30:45;;;;;;;;;;;6.90;99.90;;;;;;5093945;28;19931;-77
2022/03/16 05:33:10;;;;;;;;;;;6.90;99.90;;;;;;5093786;28;20357;-78
2022/03/16 05:35:36;;;;;;;;;;;6.90;99.90;;;;;;5093780;28;19919;-79
2022/03/16 05:38:05;;;;;;;;;;;6.80;99.90;;;;;;5093138;28;19962;-80
2022/03/16 05:40:31;;;;;;;;;;;6.80;99.90;;;;;;5093834;28;19909;-80
2022/03/16 05:42:56;;;;;;;;;;;6.80;99.90;;;;;;5093283;28;19914;-79
2022/03/16 05:45:22;;;;;;;;;;;6.70;99.90;;;;;;5093801;28;20319;-79
2022/03/16 05:47:47;;;;;;;;;;;6.80;99.90;;;;;;5093033;28;20003;-78
2022/03/16 05:50:13;;;;;;;;;;;6.70;99.90;;;;;;5093710;28;20022;-78
2022/03/16 05:52:40;;;;;;;;;;;6.70;99.90;;;;;;5093439;28;19909;-79
2022/03/16 05:55:07;;;;;;;;;;;6.70;99.90;;;;;;5092828;28;19912;-78
2022/03/16 05:57:33;;;;;;;;;;;6.70;99.90;;;;;;5097426;28;19916;-78
2022/03/16 05:59:59;;;;;;;;;;;6.70;99.90;;;;;;5105265;28;19908;-79
2022/03/16 06:02:24;;;;;;;;;;;6.70;99.90;;;;;;5093949;28;19920;-79
2022/03/16 06:04:50;;;;;;;;;;;6.70;99.90;;;;;;5092762;28;19908;-78
2022/03/16 06:07:16;;;;;;;;;;;6.70;99.90;;;;;;5093597;28;20020;-78
2022/03/16 06:09:41;;;;;;;;;;;6.70;99.90;;;;;;5091710;28;19913;-78
2022/03/16 06:12:07;;;;;;;;;;;6.70;99.90;;;;;;5092841;28;19915;-79
2022/03/16 06:14:33;;;;;;;;;;;6.70;99.90;;;;;;5092929;28;20360;-79
2022/03/16 06:16:58;;;;;;;;;;;6.60;99.90;;;;;;5092848;28;19928;-79
2022/03/16 06:19:24;;;;;;;;;;;6.60;99.90;;;;;;5093030;28;19915;-79
2022/03/16 06:21:50;;;;;;;;;;;6.60;99.90;;;;;;5093102;28;19915;-78
2022/03/16 06:24:16;;;;;;;;;;;6.60;99.90;;;;;;5092882;28;19908;-78
2022/03/16 06:26:42;;;;;;;;;;;6.60;99.90;;;;;;5092559;28;19915;-76
2022/03/16 06:29:07;;;;;;;;;;;6.60;99.90;;;;;;5092669;28;20287;-76
2022/03/16 06:31:33;;;;;;;;;;;6.60;99.90;;;;;;5092588;28;19909;-77
2022/03/16 06:33:59;;;;;;;;;;;6.50;99.90;;;;;;5092530;28;20349;-77
2022/03/16 06:36:26;;;;;;;;;;;6.50;99.90;;;;;;5092892;28;19915;-78
2022/03/16 06:38:52;;;;;;;;;;;6.50;99.90;;;;;;5092362;28;20134;-77
2022/03/16 06:41:18;;;;;;;;;;;6.50;99.90;;;;;;5093903;28;20009;-78
2022/03/16 06:43:43;;;;;;;;;;;6.50;99.90;;;;;;5106307;28;19908;-77
2022/03/16 06:46:09;;;;;;;;;;;6.50;99.90;;;;;;5094652;28;19974;-77
2022/03/16 06:48:34;;;;;;;;;;;6.40;99.90;;;;;;5092761;28;19915;-77
2022/03/16 06:51:00;;;;;;;;;;;6.50;99.90;;;;;;5092274;28;19909;-77
2022/03/16 06:53:27;;;;;;;;;;;6.50;99.90;;;;;;5092701;28;19952;-77
2022/03/16 06:55:53;;;;;;;;;;;6.40;99.90;;;;;;5092153;28;19970;-77
2022/03/16 06:58:19;;;;;;;;;;;6.50;99.90;;;;;;5092772;28;19951;-77
2022/03/16 07:00:45;;;;;;;;;;;6.50;99.90;;;;;;5092830;28;20357;-78
2022/03/16 07:03:10;;;;;;;;;;;6.50;99.90;;;;;;5092295;28;19953;-77
2022/03/16 07:05:37;;;;;;;;;;;6.50;99.90;;;;;;5092489;28;19922;-77
2022/03/16 07:08:04;;;;;;;;;;;6.50;99.90;;;;;;5091733;28;19919;-77
2022/03/16 07:10:30;;;;;;;;;;;6.50;99.90;;;;;;5092716;28;19915;-77
2022/03/16 07:12:55;;;;;;;;;;;6.50;99.90;;;;;;5093813;28;19979;-76
2022/03/16 07:15:21;;;;;;;;;;;6.40;99.90;;;;;;5092380;28;19912;-77
2022/03/16 07:17:47;;;;;;;;;;;6.40;99.90;;;;;;5095237;28;20017;-77
2022/03/16 07:20:12;;;;;;;;;;;6.40;99.90;;;;;;5096094;28;19912;-77
2022/03/16 07:22:38;;;;;;;;;;;6.40;99.90;;;;;;5096357;28;19908;-77
2022/03/16 07:25:04;;;;;;;;;;;6.40;99.90;;;;;;5094589;28;19908;-77
2022/03/16 07:27:30;;;;;;;;;;;6.50;99.90;;;;;;5106103;28;20258;-78
2022/03/16 07:29:56;;;;;;;;;;;6.40;99.90;;;;;;5100713;28;19908;-76
2022/03/16 07:32:22;;;;;;;;;;;6.50;99.90;;;;;;5096638;28;20319;-77
2022/03/16 07:34:48;;;;;;;;;;;6.50;99.90;;;;;;5096065;28;19920;-77
2022/03/16 07:37:14;;;;;;;;;;;6.50;99.90;;;;;;5095959;28;19908;-77
2022/03/16 07:39:40;;;;;;;;;;;6.50;99.90;;;;;;5095780;28;19995;-77
2022/03/16 07:42:06;;;;;;;;;;;6.50;99.90;;;;;;5095453;28;19955;-77
2022/03/16 07:44:31;;;;;;;;;;;6.50;99.90;;;;;;5095797;28;20019;-77
2022/03/16 07:46:57;;;;;;;;;;;6.50;99.90;;;;;;5095372;28;19908;-77
2022/03/16 07:49:22;;;;;;;;;;;6.50;99.90;;;;;;5095950;28;19912;-77
2022/03/16 07:51:48;;;;;;;;;;;6.40;99.90;;;;;;5095684;28;19946;-77
2022/03/16 07:54:14;;;;;;;;;;;6.40;99.90;;;;;;5095011;28;19973;-77
2022/03/16 07:56:40;;;;;;;;;;;6.50;99.90;;;;;;5095399;28;20021;-78
2022/03/16 07:59:06;;;;;;;;;;;6.50;99.90;;;;;;5095074;28;19912;-77
2022/03/16 08:01:31;;;;;;;;;;;6.50;99.90;;;;;;5095580;28;19914;-77
2022/03/16 08:03:57;;;;;;;;;;;6.50;99.90;;;;;;5095083;28;19927;-77
2022/03/16 08:06:22;;;;;;;;;;;6.40;99.90;;;;;;5095369;28;19966;-77
2022/03/16 08:08:48;;;;;;;;;;;6.40;99.90;;;;;;5095296;28;19908;-77
2022/03/16 08:11:14;;;;;;;;;;;6.50;99.90;;;;;;5102156;28;19915;-78
2022/03/16 08:13:39;;;;;;;;;;;6.40;99.90;;;;;;5102508;28;19908;-78
2022/03/16 08:16:05;;;;;;;;;;;6.40;99.90;;;;;;5094986;28;19912;-77
2022/03/16 08:18:31;;;;;;;;;;;6.40;99.90;;;;;;5095204;28;19937;-78
2022/03/16 08:20:56;;;;;;;;;;;6.40;99.90;;;;;;5095206;28;20045;-77
2022/03/16 08:23:22;;;;;;;;;;;6.50;99.90;;;;;;5095824;28;19919;-77
2022/03/16 08:25:47;;;;;;;;;;;6.40;99.90;;;;;;5096229;28;19955;-78
2022/03/16 08:28:13;;;;;;;;;;;6.40;99.90;;;;;;5094036;28;19908;-77
2022/03/16 08:30:40;;;;;;;;;;;6.40;99.90;;;;;;5096089;28;19908;-78
2022/03/16 08:33:05;;;;;;;;;;;6.40;99.90;;;;;;5093570;28;19908;-77
2022/03/16 08:35:31;;;;;;;;;;;6.40;99.90;;;;;;5094860;28;20284;-78
2022/03/16 08:37:56;;;;;;;;;;;6.50;99.90;;;;;;5094905;28;19912;-78
2022/03/16 08:40:22;;;;;;;;;;;6.50;99.90;;;;;;5092995;28;20372;-77
2022/03/16 08:42:49;;;;;;;;;;;6.60;99.90;;;;;;5094701;28;19909;-77
2022/03/16 08:45:15;;;;;;;;;;;6.70;99.90;;;;;;5094159;28;19915;-77
2022/03/16 08:47:41;;;;;;;;;;;6.70;99.90;;;;;;5094653;28;19983;-77
2022/03/16 08:50:07;;;;;;;;;;;6.70;99.90;;;;;;5093870;28;20285;-77
2022/03/16 08:52:33;;;;;;;;;;;6.80;99.90;;;;;;5094160;28;19919;-77
2022/03/16 08:54:59;;;;;;;;;;;7.00;99.90;;;;;;5094701;28;19912;-77
2022/03/16 08:57:25;;;;;;;;;;;7.00;99.90;;;;;;5108461;28;20038;-78
2022/03/16 08:59:51;;;;;;;;;;;7.00;99.90;;;;;;5100083;28;19936;-78
2022/03/16 09:02:16;;;;;;;;;;;7.00;99.90;;;;;;5093744;28;20343;-77
2022/03/16 09:04:42;;;;;;;;;;;7.00;99.90;;;;;;5094495;28;19912;-78
2022/03/16 09:07:07;;;;;;;;;;;7.10;99.90;;;;;;5093641;28;19954;-78
2022/03/16 09:09:33;;;;;;;;;;;7.20;99.90;;;;;;5094571;28;20349;-78
2022/03/16 09:11:59;;;;;;;;;;;7.20;99.90;;;;;;5094408;28;19908;-78
2022/03/16 09:14:24;;;;;;;;;;;7.20;99.90;;;;;;5093936;28;20349;-79
2022/03/16 09:16:50;;;;;;;;;;;7.30;99.90;;;;;;5093858;28;19912;-79
2022/03/16 09:19:20;;;;;;;;;;;7.30;99.90;;;;;;5093086;28;20272;-78
2022/03/16 09:21:49;;;;;;;;;;;7.30;99.90;;;;;;5093981;28;19908;-78
2022/03/16 09:24:15;;;;;;;;;;;7.20;99.90;;;;;;5093276;28;19908;-78
2022/03/16 09:26:40;;;;;;;;;;;7.20;99.90;;;;;;5093789;28;19908;-78
2022/03/16 09:29:09;;;;;;;;;;;7.20;99.90;;;;;;5093350;28;19995;-78
2022/03/16 09:31:38;;;;;;;;;;;7.20;99.90;;;;;;5092646;28;20319;-78
2022/03/16 09:34:07;;;;;;;;;;;7.20;99.90;;;;;;5092919;28;20268;-77
2022/03/16 09:36:42;;;;;;;;;;;7.20;99.90;;;;;;5095084;28;19923;-78
2022/03/16 09:39:08;;;;;;;;;;;7.20;99.90;;;;;;5092774;28;19957;-78
2022/03/16 09:41:35;;;;;;;;;;;7.20;99.90;;;;;;5093544;28;20004;-79
2022/03/16 09:44:00;;;;;;;;;;;7.30;99.90;;;;;;5093638;28;19915;-78
2022/03/16 09:46:29;;;;;;;;;;;7.30;99.90;;;;;;5103238;28;19912;-78
2022/03/16 09:48:54;;;;;;;;;;;7.50;99.90;;;;;;5093931;28;19916;-78
2022/03/16 09:51:20;;;;;;;;;;;7.60;99.90;;;;;;5092528;28;19912;-78
2022/03/16 09:53:46;;;;;;;;;;;7.70;99.90;;;;;;5093455;28;19912;-79
2022/03/16 09:56:12;;;;;;;;;;;7.70;99.90;;;;;;5093069;28;19912;-79
2022/03/16 09:58:38;;;;;;;;;;;7.70;99.90;;;;;;5093453;28;20250;-77
2022/03/16 10:01:05;;;;;;;;;;;7.70;99.90;;;;;;5092556;28;20273;-78
2022/03/16 10:03:31;;;;;;;;;;;7.80;99.90;;;;;;5093237;28;19920;-79
2022/03/16 10:05:59;;;;;;;;;;;7.80;99.90;;;;;;5093073;28;19912;-79
2022/03/16 10:08:28;;;;;;;;;;;7.90;99.90;;;;;;5091990;28;19962;-79
2022/03/16 10:13:57;;;;;;;;;;;8.00;99.90;;;;;;5093363;28;19952;-79
2022/03/16 10:16:23;;;;;;;;;;;8.10;99.90;;;;;;5091837;28;19959;-78
2022/03/16 10:18:55;;;;;;;;;;;8.10;99.90;;;;;;5093132;28;20271;-78
2022/03/16 10:21:22;;;;;;;;;;;8.10;99.90;;;;;;5092635;28;19908;-79
2022/03/16 10:23:47;;;;;;;;;;;8.20;99.90;;;;;;5093051;28;19908;-78
2022/03/16 10:26:17;;;;;;;;;;;8.20;99.90;;;;;;5091993;28;19930;-78
2022/03/16 10:28:44;;;;;;;;;;;8.20;99.90;;;;;;5093121;28;19912;-79
2022/03/16 10:31:11;;;;;;;;;;;8.10;99.90;;;;;;5092406;28;19966;-78
2022/03/16 10:33:44;;;;;;;;;;;8.10;99.90;;;;;;5092272;28;19915;-78
2022/03/16 10:36:14;;;;;;;;;;;8.10;99.90;;;;;;5092296;28;19963;-78
2022/03/16 10:38:41;;;;;;;;;;;8.20;99.90;;;;;;5092648;28;19912;-78
2022/03/16 10:41:12;;;;;;;;;;;8.30;99.90;;;;;;5092314;28;19908;-77
2022/03/16 10:46:34;;;;;;;;;;;8.50;99.90;;;;;;5092529;28;19938;-79
2022/03/16 10:49:06;;;;;;;;;;;8.60;99.90;;;;;;5093629;28;19908;-79
2022/03/16 10:51:32;;;;;;;;;;;8.60;99.90;;;;;;5092577;28;20424;-78
2022/03/16 10:54:00;;;;;;;;;;;8.60;99.90;;;;;;5096936;28;19990;-79
2022/03/16 10:56:26;;;;;;;;;;;8.70;99.90;;;;;;5095422;28;19916;-78
2022/03/16 10:58:53;;;;;;;;;;;8.60;99.90;;;;;;5096280;28;19952;-78
2022/03/16 11:01:20;;;;;;;;;;;8.80;99.90;;;;;;5111300;28;20277;-79
2022/03/16 11:03:47;;;;;;;;;;;8.90;99.90;;;;;;5095629;28;20296;-79
2022/03/16 11:06:13;;;;;;;;;;;9.00;99.90;;;;;;5094648;28;20369;-79
2022/03/16 11:08:41;;;;;;;;;;;9.00;99.90;;;;;;5095265;28;20273;-79
2022/03/16 11:13:28;;;;;;;;;;;8.90;99.90;;;;;;5096285;28;19919;-79
2022/03/16 11:13:54;;;;;;;;;;;8.90;99.90;;;;;;5096235;28;19919;-79
2022/03/16 11:16:20;;;;;;;;;;;9.00;99.90;;;;;;5095246;28;19947;-79
2022/03/16 11:18:49;;;;;;;;;;;9.00;99.90;;;;;;5096063;28;19962;-79
2022/03/16 11:21:17;;;;;;;;;;;8.90;99.90;;;;;;5095933;28;19908;-79
2022/03/16 11:26:44;;;;;;;;;;;8.90;99.90;;;;;;5095670;28;20736;-79
2022/03/16 11:29:12;;;;;;;;;;;8.90;99.90;;;;;;5096011;28;19946;-78
2022/03/16 11:31:42;;;;;;;;;;;8.80;99.90;;;;;;5096250;28;19995;-79
2022/03/16 11:34:10;;;;;;;;;;;8.90;99.90;;;;;;5096254;28;20013;-79
2022/03/16 11:36:40;;;;;;;;;;;9.00;99.90;;;;;;5095894;28;20365;-79
2022/03/16 11:39:19;;;;;;;;;;;9.10;99.90;;;;;;5096142;28;19917;-79
2022/03/16 11:41:49;;;;;;;;;;;9.10;99.90;;;;;;5096355;28;19919;-79
2022/03/16 11:44:28;;;;;;;;;;;9.10;99.90;;;;;;5095503;28;19908;-78
2022/03/16 11:47:09;;;;;;;;;;;9.20;99.90;;;;;;5096153;28;19908;-79
2022/03/16 11:49:35;;;;;;;;;;;9.30;99.90;;;;;;5095299;28;19930;-79
2022/03/16 11:52:02;;;;;;;;;;;9.40;99.90;;;;;;5095909;28;20281;-79
2022/03/16 11:54:48;;;;;;;;;;;9.50;99.90;;;;;;5095325;28;19919;-79
2022/03/16 11:57:32;;;;;;;;;;;9.50;99.90;;;;;;5095051;28;20305;-77
2022/03/16 12:00:13;;;;;;;;;;;9.60;99.90;;;;;;5096872;28;19909;-79
2022/03/16 12:02:40;;;;;;;;;;;9.70;99.90;;;;;;5094948;28;20011;-79
2022/03/16 12:05:07;;;;;;;;;;;9.60;99.90;;;;;;5095965;28;20360;-79
2022/03/16 12:07:35;;;;;;;;;;;9.70;99.90;;;;;;5094816;28;19908;-79
2022/03/16 12:10:06;;;;;;;;;;;9.80;99.90;;;;;;5095550;28;19908;-79
2022/03/16 12:15:25;;;;;;;;;;;9.80;99.90;;;;;;5094727;28;19919;-78
2022/03/16 12:17:54;;;;;;;;;;;9.80;99.90;;;;;;5095353;28;19919;-78
2022/03/16 12:20:30;;;;;;;;;;;9.80;99.90;;;;;;5094861;28;19947;-77
2022/03/16 12:22:55;;;;;;;;;;;9.90;99.90;;;;;;5095151;28;20295;-78
2022/03/16 12:25:27;;;;;;;;;;;9.90;99.90;;;;;;5094612;28;20011;-77
2022/03/16 12:30:38;;;;;;;;;;;9.90;99.90;;;;;;5094603;28;19958;-78
2022/03/16 12:33:04;;;;;;;;;;;10.00;99.90;;;;;;5095058;28;19908;-79
2022/03/16 12:35:34;;;;;;;;;;;9.90;99.90;;;;;;5094422;28;19912;-79
2022/03/16 12:38:01;;;;;;;;;;;9.90;99.90;;;;;;5095047;28;19912;-79
2022/03/16 12:40:29;;;;;;;;;;;9.90;99.90;;;;;;5094514;28;19908;-79
2022/03/16 12:42:57;;;;;;;;;;;9.90;99.90;;;;;;5100292;28;20325;-78
2022/03/16 12:45:25;;;;;;;;;;;10.00;99.90;;;;;;5094248;28;19912;-79
2022/03/16 12:48:13;;;;;;;;;;;10.10;99.90;;;;;;5094746;28;19953;-79
2022/03/16 12:50:43;;;;;;;;;;;10.10;99.90;;;;;;5094270;28;19915;-78
2022/03/16 12:53:09;;;;;;;;;;;10.20;99.90;;;;;;5094647;28;19962;-79
2022/03/16 12:55:34;;;;;;;;;;;10.30;99.90;;;;;;5093853;28;19944;-78
2022/03/16 12:58:00;;;;;;;;;;;10.30;99.90;;;;;;5094539;28;19962;-78
2022/03/16 13:00:31;;;;;;;;;;;10.20;99.90;;;;;;5093896;28;20477;-78
2022/03/16 13:03:15;;;;;;;;;;;10.20;99.90;;;;;;5094256;28;19924;-78
2022/03/16 13:05:41;;;;;;;;;;;10.30;99.90;;;;;;5093704;28;19968;-79
2022/03/16 13:08:07;;;;;;;;;;;10.30;99.90;;;;;;5093786;28;20420;-79
2022/03/16 13:11:14;;;;;;;;;;;10.30;99.90;;;;;;5093707;28;19912;-79
2022/03/16 13:13:19;;;;;;;;;;;10.40;99.90;;;;;;5093167;28;19916;-77
2022/03/16 13:15:46;;;;;;;;;;;10.30;99.90;;;;;;5093196;28;19962;-79
2022/03/16 13:18:13;;;;;;;;;;;10.20;99.90;;;;;;5094294;28;19922;-79
2022/03/16 13:20:38;;;;;;;;;;;10.20;99.90;;;;;;5093686;28;20143;-78
2022/03/16 13:23:04;;;;;;;;;;;10.30;99.90;;;;;;5093874;28;19915;-79
2022/03/16 13:25:30;;;;;;;;;;;10.30;99.90;;;;;;5093461;28;20002;-79
2022/03/16 13:27:55;;;;;;;;;;;10.30;99.90;;;;;;5093959;28;20009;-79
2022/03/16 13:30:24;;;;;;;;;;;10.30;99.90;;;;;;5093423;28;20361;-77
2022/03/16 13:32:53;;;;;;;;;;;10.30;99.90;;;;;;5102191;28;19908;-78
2022/03/16 13:35:28;;;;;;;;;;;10.20;99.90;;;;;;5103662;28;20353;-77
2022/03/16 13:38:03;;;;;;;;;;;10.20;99.90;;;;;;5094156;28;20443;-79
2022/03/16 13:40:30;;;;;;;;;;;10.20;99.90;;;;;;5092848;28;19912;-79
2022/03/16 13:43:05;;;;;;;;;;;10.20;99.90;;;;;;5093121;28;20384;-79
2022/03/16 13:45:41;;;;;;;;;;;10.20;99.90;;;;;;5092824;28;20303;-78
2022/03/16 13:48:08;;;;;;;;;;;10.30;99.90;;;;;;5093156;28;20297;-78
2022/03/16 13:50:34;;;;;;;;;;;10.30;99.90;;;;;;5092687;28;19908;-78
2022/03/16 13:53:14;;;;;;;;;;;10.30;99.90;;;;;;5126853;27;20009;-78
2022/03/16 13:55:40;;;;;;;;;;;10.30;99.90;;;;;;5095173;28;20724;-78
2022/03/16 13:58:09;;;;;;;;;;;10.50;99.90;;;;;;5093429;28;19913;-79
2022/03/16 14:00:44;;;;;;;;;;;10.60;99.90;;;;;;5092726;28;19915;-77
2022/03/16 14:03:11;;;;;;;;;;;10.70;99.90;;;;;;5093176;28;19920;-77
2022/03/16 14:05:39;;;;;;;;;;;10.80;99.90;;;;;;5092411;28;19908;-76
2022/03/16 14:08:09;;;;;;;;;;;10.80;99.90;;;;;;5093059;28;19909;-77
2022/03/16 14:10:35;;;;;;;;;;;10.80;99.90;;;;;;5092843;28;19919;-77
2022/03/16 14:13:02;;;;;;;;;;;10.70;99.90;;;;;;5093098;28;20372;-77
2022/03/16 14:15:27;;;;;;;;;;;10.70;99.90;;;;;;5092261;28;19919;-77
2022/03/16 14:17:54;;;;;;;;;;;10.50;99.90;;;;;;5092834;28;19912;-77
2022/03/16 14:20:25;;;;;;;;;;;10.50;99.90;;;;;;5092451;28;19947;-77
2022/03/16 14:22:52;;;;;;;;;;;10.50;99.90;;;;;;5092689;28;20306;-78
2022/03/16 14:25:18;;;;;;;;;;;10.60;99.90;;;;;;5099062;28;19908;-78
2022/03/16 14:27:44;;;;;;;;;;;10.60;99.90;;;;;;5110970;28;19896;-78
2022/03/16 14:30:11;;;;;;;;;;;10.50;99.90;;;;;;5096779;28;19935;-78
2022/03/16 14:32:37;;;;;;;;;;;10.50;99.90;;;;;;5092148;28;19954;-78
2022/03/16 14:35:02;;;;;;;;;;;10.50;99.90;;;;;;5092528;28;20364;-78
2022/03/16 14:37:28;;;;;;;;;;;10.50;99.90;;;;;;5092065;28;19969;-78
2022/03/16 14:39:54;;;;;;;;;;;10.50;99.90;;;;;;5092392;28;19958;-79
2022/03/16 14:42:23;;;;;;;;;;;10.50;99.90;;;;;;5092837;28;19908;-78